sensor_id;sensor_type;location;lat;lon;timestamp;pressure;altitude;pressure_sealevel;temperature;humidity
56600;BME280;51832;48.152;11.530;2023-04-01T00:04:56;94285.56;;;9.94;69.36
56600;BME280;51832;48.152;11.530;2023-04-01T00:09:57;94291.38;;;9.96;69.19
56600;BME280;51832;48.152;11.530;2023-04-01T00:14:57;94288.69;;;9.91;69.51
56600;BME280;51832;48.152;11.530;2023-04-01T00:19:57;94279.50;;;9.72;69.53
56600;BME280;51832;48.152;11.530;2023-04-01T00:24:58;94271.13;;;10.18;67.96
56600;BME280;51832;48.152;11.530;2023-04-01T00:29:58;94269.38;;;9.58;70.18
56600;BME280;51832;48.152;11.530;2023-04-01T00:34:59;94250.50;;;9.83;68.80
56600;BME280;51832;48.152;11.530;2023-04-01T00:39:59;94252.13;;;9.89;68.91
56600;BME280;51832;48.152;11.530;2023-04-01T00:50:24;94251.78;;;9.81;69.54
56600;BME280;51832;48.152;11.530;2023-04-01T00:55:26;94262.78;;;9.78;69.59
56600;BME280;51832;48.152;11.530;2023-04-01T01:00:28;94249.97;;;10.08;68.88
56600;BME280;51832;48.152;11.530;2023-04-01T01:05:57;94251.66;;;9.92;69.10
56600;BME280;51832;48.152;11.530;2023-04-01T01:11:01;94254.53;;;9.91;68.39
56600;BME280;51832;48.152;11.530;2023-04-01T01:16:17;94250.53;;;9.88;69.06
56600;BME280;51832;48.152;11.530;2023-04-01T01:27:11;94251.16;;;9.95;68.52
56600;BME280;51832;48.152;11.530;2023-04-01T01:37:51;94242.13;;;9.86;69.12
56600;BME280;51832;48.152;11.530;2023-04-01T01:42:56;94245.59;;;9.92;68.38
56600;BME280;51832;48.152;11.530;2023-04-01T01:47:58;94280.00;;;9.90;68.31
56600;BME280;51832;48.152;11.530;2023-04-01T01:53:05;94245.66;;;9.97;68.25
56600;BME280;51832;48.152;11.530;2023-04-01T02:03:30;94277.34;;;10.12;67.22
56600;BME280;51832;48.152;11.530;2023-04-01T02:08:52;94249.19;;;9.86;67.72
56600;BME280;51832;48.152;11.530;2023-04-01T02:14:00;94257.50;;;9.99;67.08
56600;BME280;51832;48.152;11.530;2023-04-01T02:19:03;94266.38;;;9.93;67.50
56600;BME280;51832;48.152;11.530;2023-04-01T02:24:10;94258.50;;;9.93;67.70
56600;BME280;51832;48.152;11.530;2023-04-01T02:29:12;94256.28;;;9.85;67.26
56600;BME280;51832;48.152;11.530;2023-04-01T02:34:13;94263.59;;;10.05;66.64
56600;BME280;51832;48.152;11.530;2023-04-01T02:39:14;94276.94;;;10.20;66.56
56600;BME280;51832;48.152;11.530;2023-04-01T02:44:15;94272.38;;;9.89;67.23
56600;BME280;51832;48.152;11.530;2023-04-01T02:49:16;94262.84;;;9.83;67.53
56600;BME280;51832;48.152;11.530;2023-04-01T02:54:16;94288.00;;;10.49;65.16
56600;BME280;51832;48.152;11.530;2023-04-01T02:59:17;94273.41;;;9.88;67.44
56600;BME280;51832;48.152;11.530;2023-04-01T03:04:17;94277.84;;;9.87;67.43
56600;BME280;51832;48.152;11.530;2023-04-01T03:09:18;94283.59;;;9.84;67.62
56600;BME280;51832;48.152;11.530;2023-04-01T03:14:18;94281.47;;;9.81;67.27
56600;BME280;51832;48.152;11.530;2023-04-01T03:19:18;94265.09;;;9.74;67.72
56600;BME280;51832;48.152;11.530;2023-04-01T03:24:20;94268.53;;;9.75;67.59
56600;BME280;51832;48.152;11.530;2023-04-01T03:29:20;94280.69;;;9.81;67.51
56600;BME280;51832;48.152;11.530;2023-04-01T03:34:21;94267.47;;;9.97;66.24
56600;BME280;51832;48.152;11.530;2023-04-01T03:39:21;94279.19;;;9.08;69.29
56600;BME280;51832;48.152;11.530;2023-04-01T03:44:22;94293.59;;;8.88;69.83
56600;BME280;51832;48.152;11.530;2023-04-01T03:49:22;94297.69;;;9.18;69.21
56600;BME280;51832;48.152;11.530;2023-04-01T03:54:23;94311.16;;;9.60;68.06
56600;BME280;51832;48.152;11.530;2023-04-01T03:59:23;94308.19;;;9.35;69.08
56600;BME280;51832;48.152;11.530;2023-04-01T04:04:23;94293.25;;;9.57;68.44
56600;BME280;51832;48.152;11.530;2023-04-01T04:09:24;94304.72;;;9.51;68.86
56600;BME280;51832;48.152;11.530;2023-04-01T04:14:24;94293.88;;;9.64;68.40
56600;BME280;51832;48.152;11.530;2023-04-01T04:19:26;94299.28;;;9.36;69.87
56600;BME280;51832;48.152;11.530;2023-04-01T04:24:26;94304.03;;;9.39;69.83
56600;BME280;51832;48.152;11.530;2023-04-01T04:29:27;94287.16;;;9.51;69.90
56600;BME280;51832;48.152;11.530;2023-04-01T04:34:27;94297.94;;;9.16;70.51
56600;BME280;51832;48.152;11.530;2023-04-01T04:39:28;94306.44;;;9.62;69.34
56600;BME280;51832;48.152;11.530;2023-04-01T04:44:29;94311.59;;;9.35;69.68
56600;BME280;51832;48.152;11.530;2023-04-01T04:49:30;94311.59;;;9.74;68.72
56600;BME280;51832;48.152;11.530;2023-04-01T04:54:31;94324.34;;;9.65;68.88
56600;BME280;51832;48.152;11.530;2023-04-01T04:59:31;94315.31;;;9.99;67.42
56600;BME280;51832;48.152;11.530;2023-04-01T05:04:36;94321.66;;;10.47;68.21
56600;BME280;51832;48.152;11.530;2023-04-01T05:09:36;94320.22;;;10.61;66.83
56600;BME280;51832;48.152;11.530;2023-04-01T05:14:37;94306.69;;;10.26;66.76
56600;BME280;51832;48.152;11.530;2023-04-01T05:19:38;94341.34;;;10.45;66.26
56600;BME280;51832;48.152;11.530;2023-04-01T05:24:38;94315.19;;;10.60;63.88
56600;BME280;51832;48.152;11.530;2023-04-01T05:29:39;94317.28;;;9.87;65.95
56600;BME280;51832;48.152;11.530;2023-04-01T05:34:39;94317.72;;;10.23;64.73
56600;BME280;51832;48.152;11.530;2023-04-01T05:39:40;94326.25;;;9.70;66.05
56600;BME280;51832;48.152;11.530;2023-04-01T05:44:40;94324.50;;;9.97;65.88
56600;BME280;51832;48.152;11.530;2023-04-01T05:49:40;94343.50;;;9.82;65.15
56600;BME280;51832;48.152;11.530;2023-04-01T05:54:41;94321.88;;;9.97;65.00
56600;BME280;51832;48.152;11.530;2023-04-01T05:59:41;94311.91;;;10.21;64.45
56600;BME280;51832;48.152;11.530;2023-04-01T06:04:42;94323.41;;;10.42;63.68
56600;BME280;51832;48.152;11.530;2023-04-01T06:09:43;94357.75;;;10.30;63.62
56600;BME280;51832;48.152;11.530;2023-04-01T06:14:48;94321.50;;;10.59;62.66
56600;BME280;51832;48.152;11.530;2023-04-01T06:30:38;94313.50;;;10.49;61.93
56600;BME280;51832;48.152;11.530;2023-04-01T06:46:47;94322.34;;;10.64;60.37
56600;BME280;51832;48.152;11.530;2023-04-01T06:51:59;94318.38;;;10.94;59.58
56600;BME280;51832;48.152;11.530;2023-04-01T06:57:17;94323.69;;;10.99;58.78
56600;BME280;51832;48.152;11.530;2023-04-01T07:02:31;94333.03;;;10.85;59.42
56600;BME280;51832;48.152;11.530;2023-04-01T07:07:41;94354.03;;;10.53;59.63
56600;BME280;51832;48.152;11.530;2023-04-01T07:12:50;94345.06;;;10.49;60.85
56600;BME280;51832;48.152;11.530;2023-04-01T07:17:55;94411.91;;;10.31;60.16
56600;BME280;51832;48.152;11.530;2023-04-01T07:22:59;94343.25;;;10.49;59.76
56600;BME280;51832;48.152;11.530;2023-04-01T07:28:12;94344.13;;;11.19;58.27
56600;BME280;51832;48.152;11.530;2023-04-01T07:33:37;94344.56;;;10.79;58.98
56600;BME280;51832;48.152;11.530;2023-04-01T07:39:00;94346.72;;;11.56;57.50
56600;BME280;51832;48.152;11.530;2023-04-01T07:44:15;94340.00;;;11.33;57.29
56600;BME280;51832;48.152;11.530;2023-04-01T07:49:29;94349.94;;;11.26;57.86
56600;BME280;51832;48.152;11.530;2023-04-01T08:21:06;94346.66;;;11.83;54.67
56600;BME280;51832;48.152;11.530;2023-04-01T08:26:23;94335.16;;;11.57;55.28
56600;BME280;51832;48.152;11.530;2023-04-01T08:31:37;94358.25;;;11.45;55.39
56600;BME280;51832;48.152;11.530;2023-04-01T08:36:41;94334.13;;;12.10;54.16
56600;BME280;51832;48.152;11.530;2023-04-01T08:47:39;94345.31;;;12.42;52.75
56600;BME280;51832;48.152;11.530;2023-04-01T09:03:36;94356.69;;;11.86;53.91
56600;BME280;51832;48.152;11.530;2023-04-01T09:14:30;94314.38;;;12.18;53.06
56600;BME280;51832;48.152;11.530;2023-04-01T09:35:50;94297.88;;;12.83;50.57
56600;BME280;51832;48.152;11.530;2023-04-01T09:41:45;94305.81;;;12.98;49.75
56600;BME280;51832;48.152;11.530;2023-04-01T09:52:37;94272.00;;;13.05;49.41
56600;BME280;51832;48.152;11.530;2023-04-01T10:03:54;94289.44;;;12.96;49.26
56600;BME280;51832;48.152;11.530;2023-04-01T10:19:38;94288.63;;;13.26;48.64
56600;BME280;51832;48.152;11.530;2023-04-01T11:40:59;94333.34;;;12.09;60.86
56600;BME280;51832;48.152;11.530;2023-04-01T11:46:19;94380.81;;;11.30;64.26
56600;BME280;51832;48.152;11.530;2023-04-01T11:52:38;94363.03;;;10.84;65.51
56600;BME280;51832;48.152;11.530;2023-04-01T12:08:28;94380.06;;;11.03;68.80
56600;BME280;51832;48.152;11.530;2023-04-01T12:24:48;94401.16;;;10.81;69.46
56600;BME280;51832;48.152;11.530;2023-04-01T12:52:27;94339.84;;;10.81;68.91
56600;BME280;51832;48.152;11.530;2023-04-01T13:13:54;94360.94;;;10.59;68.58
56600;BME280;51832;48.152;11.530;2023-04-01T13:39:40;94410.94;;;10.37;71.52
56600;BME280;51832;48.152;11.530;2023-04-01T13:55:44;94376.59;;;10.22;72.13
56600;BME280;51832;48.152;11.530;2023-04-01T14:01:04;94371.16;;;10.55;70.99
56600;BME280;51832;48.152;11.530;2023-04-01T14:11:42;94378.22;;;10.50;72.43
56600;BME280;51832;48.152;11.530;2023-04-01T14:17:03;94377.72;;;11.07;71.32
56600;BME280;51832;48.152;11.530;2023-04-01T14:32:44;94384.53;;;10.76;69.32
56600;BME280;51832;48.152;11.530;2023-04-01T14:38:04;94373.97;;;11.34;68.73
56600;BME280;51832;48.152;11.530;2023-04-01T14:53:38;94389.09;;;11.49;69.22
56600;BME280;51832;48.152;11.530;2023-04-01T14:58:49;94382.09;;;11.28;70.28
56600;BME280;51832;48.152;11.530;2023-04-01T15:26:02;94382.88;;;10.96;68.36
56600;BME280;51832;48.152;11.530;2023-04-01T15:46:47;94405.06;;;11.37;66.87
56600;BME280;51832;48.152;11.530;2023-04-01T15:57:28;94458.53;;;11.33;62.42
56600;BME280;51832;48.152;11.530;2023-04-01T16:02:43;94406.28;;;11.89;60.74
56600;BME280;51832;48.152;11.530;2023-04-01T16:07:59;94398.94;;;11.59;60.58
56600;BME280;51832;48.152;11.530;2023-04-01T16:23:52;94403.13;;;11.97;58.25
56600;BME280;51832;48.152;11.530;2023-04-01T16:29:12;94398.16;;;12.00;58.09
56600;BME280;51832;48.152;11.530;2023-04-01T16:34:33;94409.97;;;11.93;58.25
56600;BME280;51832;48.152;11.530;2023-04-01T16:39:44;94410.88;;;11.71;59.68
56600;BME280;51832;48.152;11.530;2023-04-01T16:50:22;94415.44;;;11.49;59.55
56600;BME280;51832;48.152;11.530;2023-04-01T16:55:22;94437.56;;;11.16;59.92
56600;BME280;51832;48.152;11.530;2023-04-01T17:00:35;94421.97;;;11.42;59.14
56600;BME280;51832;48.152;11.530;2023-04-01T17:06:07;94423.09;;;11.51;58.27
56600;BME280;51832;48.152;11.530;2023-04-01T17:53:28;94474.34;;;11.38;58.09
56600;BME280;51832;48.152;11.530;2023-04-01T17:58:46;94461.94;;;11.65;57.63
56600;BME280;51832;48.152;11.530;2023-04-01T18:14:29;94467.09;;;11.82;57.01
56600;BME280;51832;48.152;11.530;2023-04-01T18:20:17;94487.41;;;11.55;58.06
56600;BME280;51832;48.152;11.530;2023-04-01T18:30:32;94498.53;;;11.08;60.93
56600;BME280;51832;48.152;11.530;2023-04-01T18:40:46;94495.63;;;11.31;61.39
56600;BME280;51832;48.152;11.530;2023-04-01T18:46:00;94538.22;;;11.01;61.73
56600;BME280;51832;48.152;11.530;2023-04-01T18:51:15;94495.78;;;11.20;61.37
56600;BME280;51832;48.152;11.530;2023-04-01T18:56:28;94518.69;;;10.97;62.70
56600;BME280;51832;48.152;11.530;2023-04-01T19:06:59;94522.28;;;11.67;61.62
56600;BME280;51832;48.152;11.530;2023-04-01T19:28:02;94539.69;;;11.41;62.77
56600;BME280;51832;48.152;11.530;2023-04-01T19:33:20;94557.59;;;11.66;62.25
56600;BME280;51832;48.152;11.530;2023-04-01T19:38:35;94569.19;;;11.16;64.06
56600;BME280;51832;48.152;11.530;2023-04-01T19:59:45;94559.16;;;10.69;64.85
56600;BME280;51832;48.152;11.530;2023-04-01T20:04:50;94565.47;;;10.90;64.34
56600;BME280;51832;48.152;11.530;2023-04-01T20:09:58;94570.91;;;10.84;65.10
56600;BME280;51832;48.152;11.530;2023-04-01T20:15:30;94575.59;;;10.60;65.37
56600;BME280;51832;48.152;11.530;2023-04-01T20:20:28;94583.97;;;10.57;65.17
56600;BME280;51832;48.152;11.530;2023-04-01T20:25:30;94586.06;;;10.55;65.47
56600;BME280;51832;48.152;11.530;2023-04-01T20:36:06;94598.00;;;10.62;64.98
56600;BME280;51832;48.152;11.530;2023-04-01T20:46:48;94589.81;;;10.81;64.51
56600;BME280;51832;48.152;11.530;2023-04-01T20:51:59;94591.25;;;10.88;64.16
56600;BME280;51832;48.152;11.530;2023-04-01T20:57:06;94597.34;;;10.94;63.67
56600;BME280;51832;48.152;11.530;2023-04-01T21:02:52;94598.47;;;11.20;63.63
56600;BME280;51832;48.152;11.530;2023-04-01T21:08:12;94599.38;;;10.87;63.87
56600;BME280;51832;48.152;11.530;2023-04-01T21:29:21;94619.31;;;10.11;66.63
56600;BME280;51832;48.152;11.530;2023-04-01T21:45:46;94622.41;;;10.41;66.14
56600;BME280;51832;48.152;11.530;2023-04-01T21:51:17;94643.16;;;10.21;66.23
56600;BME280;51832;48.152;11.530;2023-04-01T22:02:17;94641.00;;;10.35;65.55
56600;BME280;51832;48.152;11.530;2023-04-01T22:07:31;94655.31;;;10.44;65.57
56600;BME280;51832;48.152;11.530;2023-04-01T22:12:38;94645.47;;;10.51;65.32
56600;BME280;51832;48.152;11.530;2023-04-01T22:17:47;94659.25;;;10.24;66.30
56600;BME280;51832;48.152;11.530;2023-04-01T22:28:21;94650.59;;;10.79;64.63
56600;BME280;51832;48.152;11.530;2023-04-01T22:39:19;94654.38;;;10.50;65.42
56600;BME280;51832;48.152;11.530;2023-04-01T22:50:10;94662.16;;;10.78;63.82
56600;BME280;51832;48.152;11.530;2023-04-01T22:55:16;94669.50;;;10.43;65.08
56600;BME280;51832;48.152;11.530;2023-04-01T23:00:37;94655.69;;;10.86;63.77
56600;BME280;51832;48.152;11.530;2023-04-01T23:05:47;94675.25;;;10.23;65.29
56600;BME280;51832;48.152;11.530;2023-04-01T23:10:52;94668.41;;;10.22;65.54
56600;BME280;51832;48.152;11.530;2023-04-01T23:15:54;94671.19;;;10.32;65.61
56600;BME280;51832;48.152;11.530;2023-04-01T23:21:00;94693.25;;;10.31;65.57
56600;BME280;51832;48.152;11.530;2023-04-01T23:31:34;94690.47;;;10.71;64.29
56600;BME280;51832;48.152;11.530;2023-04-01T23:36:39;94694.78;;;10.60;64.88
56600;BME280;51832;48.152;11.530;2023-04-01T23:41:40;94697.09;;;10.23;65.73
56600;BME280;51832;48.152;11.530;2023-04-01T23:46:43;94702.66;;;10.27;65.91
56600;BME280;51832;48.152;11.530;2023-04-01T23:51:58;94703.53;;;10.32;65.54
56600;BME280;51832;48.152;11.530;2023-04-01T23:57:04;94696.06;;;10.24;65.69
